Happy Valentine's Day! 

Flight Track Log - Related Links

Times and Time Zones

All times are in EDT time to prevent confusion due to time zone crossing. See the N690TW flight status page for this flight to view local times or setup timezone preferences in your user account.


Time Position Orientation Groundspeed Altitude Reporting Facility
EDT Latitude Longitude Course Direction KTS MPH feet Rate Location/Type
Fri 04:21:57 PM 34.7667 -90.5667 281° West 199 229 6,000  Level KMEM
Fri 04:22:59 PM 34.7756 -90.6225 281° West 171 197 7,700 1,426 Climbing Memphis Center
Fri 04:23:59 PM 34.7919 -90.6706 293° West 176 203 8,900 1,450 Climbing Memphis Center
Fri 04:24:59 PM 34.8086 -90.7214 292° West 170 196 10,600 1,500 Climbing Memphis Center
Fri 04:25:59 PM 34.8272 -90.7744 293° West 170 196 11,900 1,450 Climbing Memphis Center
Fri 04:26:59 PM 34.8458 -90.8278 293° West 170 196 13,500 1,450 Climbing Memphis Center
Fri 04:27:59 PM 34.8622 -90.8783 292° West 170 196 14,800 750 Climbing Memphis Center
Fri 04:28:59 PM 34.8831 -90.9369 293° West 180 207 15,000 100 Climbing Memphis Center
Fri 04:29:59 PM 34.9075 -91.0131 291° West 209 241 15,000  Level Memphis Center
Fri 04:30:59 PM 34.9322 -91.0817 294° West 220 253 15,000 100 Level Memphis Center
Fri 04:31:59 PM 34.9547 -91.1500 292° West 220 253 15,200 1,100 Climbing Memphis Center
Fri 04:32:59 PM 34.9733 -91.2061 292° West 201 231 17,200 2,000 Climbing Memphis Center
Fri 04:33:59 PM 34.9875 -91.2544 290° West 170 196 19,200 1,850 Climbing Memphis Center
Fri 04:34:59 PM 35.0039 -91.3028 292° West 158 182 20,900 1,650 Climbing Memphis Center
Fri 04:35:59 PM 35.0200 -91.3511 292° West 153 176 22,500 1,500 Climbing Memphis Center
Fri 04:36:59 PM 35.0364 -91.3969 294° West 148 170 23,900 1,350 Climbing Memphis Center
Fri 04:37:59 PM 35.0486 -91.4428 288° West 148 170 25,200 1,000 Climbing Memphis Center
Fri 04:38:59 PM 35.0647 -91.4936 291° West 148 170 25,900 700 Climbing Memphis Center
Fri 04:39:59 PM 35.0831 -91.5522 291° West 163 188 26,600 700 Climbing Memphis Center
Fri 04:40:59 PM 35.1056 -91.6083 296° West 175 201 27,300 700 Climbing Memphis Center
Fri 04:41:59 PM 35.1217 -91.6644 289° West 180 207 28,000 700 Climbing Memphis Center
Fri 04:42:59 PM 35.1397 -91.7206 291° West 180 207 28,700 700 Climbing Memphis Center
Fri 04:43:59 PM 35.1578 -91.7769 291° West 180 207 29,400 700 Climbing Memphis Center
Fri 04:44:59 PM 35.1761 -91.8306 293° West 180 207 30,100 650 Climbing Memphis Center
Fri 04:45:59 PM 35.1922 -91.8842 290° West 175 201 30,700 550 Climbing Memphis Center
Fri 04:46:59 PM 35.2103 -91.9378 292° West 170 196 31,200 500 Climbing Memphis Center
Fri 04:47:59 PM 35.2283 -91.9942 291° West 170 196 31,700 500 Climbing Memphis Center
Fri 04:48:59 PM 35.2464 -92.0478 292° West 170 196 32,200 500 Climbing Memphis Center
Fri 04:49:59 PM 35.2642 -92.1067 290° West 170 196 32,700 500 Climbing Memphis Center
Fri 04:50:59 PM 35.2822 -92.1606 292° West 170 196 33,200 500 Climbing Memphis Center
Fri 04:51:59 PM 35.2983 -92.2117 291° West 170 196 33,700 400 Climbing Memphis Center
Fri 04:52:59 PM 35.3119 -92.2603 289° West 170 196 34,000 150 Climbing Memphis Center
Fri 04:53:59 PM 35.3300 -92.3142 292° West 170 196 34,000  Level Memphis Center
Fri 04:54:59 PM 35.3500 -92.3733 293° West 170 196 34,000  Level Memphis Center
Fri 04:55:59 PM 35.3697 -92.4372 291° West 186 214 34,000  Level Memphis Center
Fri 04:56:59 PM 35.3894 -92.4989 291° West 191 220 34,000  Level Memphis Center
Fri 04:57:59 PM 35.4092 -92.5656 290° West 196 226 34,000  Level Memphis Center
Fri 04:58:59 PM 35.4311 -92.6300 293° West 201 231 34,000  Level Memphis Center
Fri 04:59:59 PM 35.4508 -92.6942 291° West 206 237 34,000  Level Memphis Center
Fri 05:00:59 PM 35.4725 -92.7586 292° West 206 237 34,000  Level Memphis Center
Fri 05:01:59 PM 35.4942 -92.8256 292° West 206 237 34,000  Level Memphis Center
Fri 05:02:59 PM 35.5136 -92.8847 292° West 211 243 34,000  Level Memphis Center
Fri 05:03:59 PM 35.5375 -92.9517 294° West 211 243 34,000  Level Memphis Center
Fri 05:04:59 PM 35.5567 -93.0214 289° West 211 243 34,000  Level Memphis Center
Fri 05:05:59 PM 35.5761 -93.0908 289° West 211 243 34,000  Level Memphis Center
Fri 05:06:59 PM 35.5956 -93.1578 290° West 211 243 34,000  Level Memphis Center
Fri 05:07:59 PM 35.6211 -93.2225 296° West 211 243 34,000  Level Memphis Center
Fri 05:08:59 PM 35.6553 -93.2850 304° West 217 250 34,000  Level Memphis Center
Fri 05:09:59 PM 35.6892 -93.3503 303° West 222 255 34,000  Level Memphis Center
Fri 05:10:59 PM 35.7208 -93.4100 303° West 222 255 34,000  Level Memphis Center
Fri 05:11:59 PM 35.7506 -93.4803 298° West 222 255 34,000  Level Memphis Center
Fri 05:12:59 PM 35.7739 -93.5478 293° West 222 255 34,000  Level Memphis Center
Fri 05:13:59 PM 35.7972 -93.6150 293° West 217 250 34,000  Level Memphis Center
Fri 05:14:59 PM 35.8225 -93.6828 295° West 217 250 34,000  Level Memphis Center
Fri 05:15:59 PM 35.8456 -93.7503 293° West 217 250 34,000  Level Memphis Center
Fri 05:16:59 PM 35.8689 -93.8178 293° West 217 250 34,000  Level Memphis Center
Fri 05:17:59 PM 35.8942 -93.8828 296° West 217 250 34,000  Level Memphis Center
Fri 05:18:59 PM 35.9169 -93.9556 291° West 217 250 34,000  Level Memphis Center
Fri 05:19:59 PM 35.9400 -94.0233 293° West 217 250 34,000  Level Memphis Center
Fri 05:20:59 PM 35.9628 -94.0986 291° West 212 244 34,000  Level Memphis Center
Fri 05:21:59 PM 35.9919 -94.1692 297° West 212 244 34,000  Level Memphis Center
Fri 05:22:59 PM 36.0150 -94.2369 293° West 212 244 34,000  Level Memphis Center
Fri 05:23:59 PM 36.0378 -94.3047 293° West 212 244 34,000  Level Memphis Center
Fri 05:24:59 PM 36.0628 -94.3753 294° West 212 244 34,000  Level Memphis Center
Fri 05:25:59 PM 36.0856 -94.4433 293° West 212 244 34,000  Level Memphis Center
Fri 05:28:13 PM 36.1408 -94.5903 295° West 216 249 34,000  Level Kansas City Center
Fri 05:29:15 PM 36.1636 -94.6578 293° West 213 245 34,000  Level Kansas City Center
Fri 05:30:17 PM 36.1883 -94.7267 294° West 217 250 34,000  Level Kansas City Center
Fri 05:31:19 PM 36.2119 -94.7953 293° West 216 249 34,000  Level Kansas City Center
Fri 05:32:21 PM 36.2353 -94.8636 293° West 216 249 34,000  Level Kansas City Center
Fri 05:33:23 PM 36.2633 -94.9461 293° West 215 247 34,000  Level Kansas City Center
Fri 05:34:25 PM 36.2867 -95.0142 293° West 214 246 34,000  Level Kansas City Center
Fri 05:35:27 PM 36.3097 -95.0822 293° West 214 246 34,000  Level Kansas City Center
Fri 05:36:30 PM 36.3303 -95.1425 293° West 210 242 34,000  Level Kansas City Center
Fri 05:37:32 PM 36.3581 -95.2233 293° West 212 244 34,000  Level Kansas City Center
Fri 05:38:34 PM 36.3800 -95.2889 293° West 208 239 34,000  Level Kansas City Center
Fri 05:39:36 PM 36.4025 -95.3547 293° West 208 239 34,000  Level Kansas City Center
Fri 05:40:38 PM 36.4239 -95.4194 292° West 206 237 34,000  Level Kansas City Center
Fri 05:41:40 PM 36.4456 -95.4825 293° West 203 234 34,000  Level Kansas City Center
Fri 05:42:42 PM 36.4722 -95.5617 293° West 204 235 34,000  Level Kansas City Center
Fri 05:43:44 PM 36.4956 -95.6306 293° West 209 241 34,000  Level Kansas City Center
Fri 05:44:46 PM 36.5164 -95.6933 292° West 200 230 34,000  Level Kansas City Center
Fri 05:45:48 PM 36.5389 -95.7622 292° West 205 236 34,000  Level Kansas City Center
Fri 05:46:50 PM 36.5608 -95.8269 293° West 204 235 34,000  Level Kansas City Center
Fri 05:47:52 PM 36.5831 -95.8928 293° West 205 236 34,000  Level Kansas City Center
Fri 05:48:54 PM 36.6042 -95.9586 292° West 204 235 34,000  Level Kansas City Center
Fri 05:49:56 PM 36.6306 -96.0369 293° West 205 236 34,000  Level Kansas City Center
Fri 05:50:58 PM 36.6528 -96.1036 293° West 207 238 34,000  Level Kansas City Center
Fri 05:52:00 PM 36.6750 -96.1719 292° West 211 243 34,000  Level Kansas City Center
Fri 05:53:02 PM 36.6975 -96.2400 292° West 213 245 34,000  Level Kansas City Center
Fri 05:54:04 PM 36.7189 -96.3064 292° West 209 241 34,000  Level Kansas City Center
Fri 05:55:06 PM 36.7414 -96.3736 293° West 210 242 34,000  Level Kansas City Center
Fri 05:56:08 PM 36.7631 -96.4403 292° West 207 238 34,000  Level Kansas City Center
Fri 05:57:10 PM 36.7886 -96.5183 292° West 204 235 34,000  Level Kansas City Center
Fri 05:58:12 PM 36.8094 -96.5836 292° West 203 234 34,000  Level Kansas City Center
Fri 05:59:15 PM 36.8303 -96.6508 291° West 205 236 34,000  Level Kansas City Center
Fri 06:00:17 PM 36.8525 -96.7167 293° West 206 237 34,000  Level Kansas City Center
Fri 06:01:19 PM 36.8736 -96.7886 290° West 207 238 34,000  Level Kansas City Center
Fri 06:02:21 PM 36.8950 -96.8519 293° West 202 232 34,000  Level Kansas City Center
Fri 06:03:23 PM 36.9158 -96.9164 292° West 200 230 34,000  Level Kansas City Center
Fri 06:04:25 PM 36.9356 -96.9814 291° West 200 230 34,000  Level Kansas City Center
Fri 06:05:27 PM 36.9572 -97.0447 293° West 199 229 34,000  Level Kansas City Center
Fri 06:06:29 PM 36.9825 -97.1219 292° West 200 230 34,000  Level Kansas City Center
Fri 06:07:31 PM 37.0028 -97.1875 291° West 200 230 34,000  Level Kansas City Center
Fri 06:08:33 PM 37.0222 -97.2519 291° West 200 230 34,000  Level Kansas City Center
Fri 06:09:35 PM 37.0417 -97.3158 291° West 198 228 34,000  Level Kansas City Center
Fri 06:10:37 PM 37.0619 -97.3800 292° West 198 228 34,000  Level Kansas City Center
Fri 06:11:39 PM 37.0828 -97.4458 292° West 200 230 34,000  Level Kansas City Center
Fri 06:12:41 PM 37.1081 -97.5256 292° West 203 234 34,000  Level Kansas City Center
Fri 06:13:43 PM 37.1289 -97.5922 291° West 205 236 34,000  Level Kansas City Center
Fri 06:14:45 PM 37.1494 -97.6583 291° West 203 234 34,000  Level Kansas City Center
Fri 06:15:47 PM 37.1703 -97.7233 292° West 201 231 34,000  Level Kansas City Center
Fri 06:16:49 PM 37.1906 -97.7886 291° West 201 231 34,000  Level Kansas City Center
Fri 06:17:51 PM 37.2106 -97.8536 291° West 200 230 34,000  Level Kansas City Center
Fri 06:18:53 PM 37.2308 -97.9194 291° West 201 231 34,000  Level Kansas City Center
Fri 06:19:55 PM 37.2556 -98.0006 291° West 205 236 34,000  Level Kansas City Center
Fri 06:20:57 PM 37.2758 -98.0669 291° West 204 235 34,000  Level Kansas City Center
Fri 06:21:59 PM 37.2956 -98.1325 291° West 202 232 34,000  Level Kansas City Center
Fri 06:23:01 PM 37.3161 -98.1992 291° West 203 234 34,000  Level Kansas City Center
Fri 06:24:03 PM 37.3358 -98.2644 291° West 202 232 34,000  Level Kansas City Center
Fri 06:25:05 PM 37.3564 -98.3294 292° West 200 230 34,000  Level Kansas City Center
Fri 06:26:07 PM 37.3764 -98.3964 291° West 202 232 34,000  Level Kansas City Center
Fri 06:27:09 PM 37.4014 -98.4769 291° West 205 236 34,000 -48 Level Kansas City Center
Fri 06:28:11 PM 37.4206 -98.5433 290° West 203 234 33,900  Descending Kansas City Center
Fri 06:29:13 PM 37.4414 -98.6094 292° West 203 234 34,000 48 Climbing Kansas City Center
Fri 06:30:15 PM 37.4614 -98.6758 291° West 203 234 34,000  Level Kansas City Center
Fri 06:31:17 PM 37.4817 -98.7422 291° West 202 232 34,000  Level Kansas City Center
Fri 06:32:19 PM 37.5006 -98.8089 290° West 202 232 34,000  Level Kansas City Center
Fri 06:33:21 PM 37.5214 -98.8756 292° West 204 235 34,000  Level Kansas City Center
Fri 06:34:23 PM 37.5450 -98.9561 290° West 204 235 34,000  Level Kansas City Center
Fri 06:35:24 PM 37.5644 -99.0208 291° West 201 231 34,000  Level Kansas City Center
Fri 06:36:26 PM 37.5836 -99.0872 290° West 201 231 34,000  Level Kansas City Center
Fri 06:37:28 PM 37.6031 -99.1536 290° West 201 231 34,000 -97 Level Kansas City Center
Fri 06:38:30 PM 37.6236 -99.2222 291° West 206 237 33,800 -290 Descending Kansas City Center
Fri 06:39:32 PM 37.6439 -99.2939 290° West 213 245 33,400 -387 Descending Kansas City Center
Fri 06:40:34 PM 37.6664 -99.3683 291° West 223 257 33,000 -195 Descending Kansas City Center
Fri 06:41:35 PM 37.6925 -99.4567 291° West 223 257 33,000  Level Kansas City Center
Fri 06:42:37 PM 37.7131 -99.5225 292° West 218 251 33,000  Level Kansas City Center
Fri 06:43:40 PM 37.7356 -99.6011 290° West 214 246 33,000  Level Kansas City Center
Fri 06:44:41 PM 37.7550 -99.6681 290° West 213 245 33,000  Level Kansas City Center
Fri 06:45:43 PM 37.7778 -99.7469 290° West 213 245 33,000  Level Kansas City Center
Fri 06:46:45 PM 37.7972 -99.8131 290° West 212 244 33,000  Level Kansas City Center
Fri 06:47:47 PM 37.8194 -99.8897 290° West 210 242 33,000  Level Kansas City Center
Fri 06:48:49 PM 37.8381 -99.9558 290° West 209 241 33,000  Level Kansas City Center
Fri 06:49:50 PM 37.8572 -100.0250 289° West 214 246 33,000  Level Kansas City Center
Fri 06:50:52 PM 37.8800 -100.1031 290° West 213 245 33,000  Level Kansas City Center
Fri 06:51:54 PM 37.9000 -100.1708 291° West 214 246 33,000  Level Kansas City Center
Fri 06:52:56 PM 37.9211 -100.2500 289° West 213 245 33,000  Level Kansas City Center
Fri 06:53:58 PM 37.9408 -100.3158 291° West 211 243 33,000  Level Kansas City Center
Fri 06:55:00 PM 37.9622 -100.3936 289° West 210 242 33,000  Level Kansas City Center
Fri 06:56:02 PM 37.9811 -100.4600 290° West 210 242 33,000  Level Kansas City Center
Fri 06:57:04 PM 38.0031 -100.5381 290° West 211 243 33,000  Level Kansas City Center
Fri 06:58:06 PM 38.0211 -100.6047 289° West 210 242 33,000  Level Kansas City Center
Fri 06:59:08 PM 38.0439 -100.6822 290° West 211 243 33,000  Level Kansas City Center
Fri 07:00:10 PM 38.0614 -100.7500 288° West 212 244 33,000  Level Kansas City Center
Fri 07:01:12 PM 38.0842 -100.8267 291° West 210 242 33,000  Level Kansas City Center
Fri 07:02:14 PM 38.1019 -100.8928 289° West 208 239 33,000  Level Kansas City Center
Fri 07:03:16 PM 38.1236 -100.9711 289° West 211 243 33,000  Level Kansas City Center
Fri 07:04:18 PM 38.1414 -101.0383 289° West 211 243 33,000  Level Kansas City Center
Fri 07:05:20 PM 38.1631 -101.1172 289° West 212 244 33,000  Level Kansas City Center
Fri 07:06:21 PM 38.1814 -101.1858 289° West 214 246 33,000  Level Kansas City Center
Fri 07:07:23 PM 38.2033 -101.2672 289° West 217 250 33,000  Level Kansas City Center
Fri 07:08:35 PM 38.2256 -101.3469 290° West 216 249 33,000  Level Denver Center
Fri 07:09:37 PM 38.2472 -101.4278 289° West 217 250 33,000  Level Denver Center
Fri 07:10:39 PM 38.2664 -101.4967 290° West 216 249 33,000  Level Denver Center
Fri 07:11:40 PM 38.2847 -101.5669 288° West 218 251 33,000  Level Denver Center
Fri 07:12:42 PM 38.3067 -101.6469 289° West 216 249 33,000  Level Denver Center
Fri 07:13:44 PM 38.3250 -101.7175 288° West 219 252 33,000  Level Denver Center
Fri 07:14:46 PM 38.3464 -101.7983 289° West 218 251 33,000  Level Denver Center
Fri 07:15:48 PM 38.3658 -101.8656 290° West 214 246 33,000  Level Denver Center
Fri 07:16:50 PM 38.3861 -101.9478 287° West 217 250 33,000  Level Denver Center
Fri 07:17:52 PM 38.4028 -102.0172 287° West 216 249 33,000  Level Denver Center
Fri 07:18:54 PM 38.4228 -102.1000 287° West 217 250 33,000  Level Denver Center
Fri 07:19:56 PM 38.4389 -102.1711 286° West 218 251 33,000 -145 Level Denver Center
Fri 07:20:58 PM 38.4583 -102.2547 287° West 220 253 32,700 -387 Descending Denver Center
Fri 07:22:00 PM 38.4769 -102.3306 287° West 229 264 32,200 -484 Descending Denver Center
Fri 07:23:02 PM 38.4981 -102.4239 286° West 241 277 31,700 -484 Descending Denver Center
Fri 07:24:04 PM 38.5167 -102.5014 287° West 239 275 31,200 -532 Descending Denver Center
Fri 07:25:06 PM 38.5372 -102.5917 286° West 237 273 30,600 -484 Descending Denver Center
Fri 07:26:08 PM 38.5567 -102.6703 288° West 242 278 30,200 -435 Descending Denver Center
Fri 07:27:10 PM 38.5739 -102.7472 286° West 236 272 29,700 -532 Descending Denver Center
Fri 07:28:12 PM 38.5942 -102.8358 286° West 233 268 29,100 -532 Descending Denver Center
Fri 07:29:14 PM 38.6131 -102.9131 287° West 229 264 28,600 -581 Descending Denver Center
Fri 07:30:16 PM 38.6297 -102.9886 286° West 223 257 27,900 -726 Descending Denver Center
Fri 07:31:18 PM 38.6472 -103.0656 286° West 226 260 27,100 -823 Descending Denver Center
Fri 07:32:20 PM 38.6689 -103.1578 287° West 226 260 26,200 -823 Descending Denver Center
Fri 07:33:22 PM 38.6872 -103.2369 287° West 231 266 25,400 -823 Descending Denver Center
Fri 07:34:24 PM 38.7047 -103.3158 286° West 232 267 24,500 -871 Descending Denver Center
Fri 07:35:26 PM 38.7228 -103.3939 287° West 230 265 23,600 -919 Descending Denver Center
Fri 07:36:28 PM 38.7422 -103.4817 286° West 230 265 22,600 -919 Descending Denver Center
Fri 07:37:30 PM 38.7592 -103.5597 286° West 237 273 21,700 -919 Descending Denver Center
Fri 07:38:32 PM 38.7806 -103.6536 286° West 246 283 20,700 -919 Descending Denver Center
Fri 07:39:34 PM 38.7983 -103.7383 285° West 257 296 19,800 -823 Descending Denver Center
Fri 07:40:36 PM 38.8183 -103.8239 287° West 261 300 19,000 -951 Descending Denver Center
Fri 07:40:56 PM 38.8275 -103.8625 287° West 256 295 18,500 -1,065 Descending Denver Center
Fri 07:41:38 PM 38.8397 -103.9225 285° West 258 297 17,900 -750 Descending Denver Center
Fri 07:42:40 PM 38.8586 -104.0086 286° West 257 296 17,200 -823 Descending Denver Center
Fri 07:43:42 PM 38.8775 -104.0956 286° West 254 292 16,200 -1,016 Descending Denver Center
Fri 07:44:44 PM 38.8903 -104.1872 280° West 250 288 15,100 -1,040 Descending Denver Center
Fri 07:44:57 PM 38.8964 -104.2156 285° West 253 291 14,900 -1,161 Descending Denver Center
Fri 07:45:46 PM 38.9331 -104.2619 315° West 250 288 13,900 -1,027 Descending Denver Center
Fri 07:46:48 PM 38.9847 -104.3075 326° Northwest 238 274 13,000 -968 Descending Denver Center
Fri 07:47:50 PM 39.0469 -104.3636 325° Northwest 241 277 11,900 -968 Descending Denver Center
Fri 07:48:52 PM 39.1000 -104.4086 327° Northwest 240 276 11,000 -532 Descending Denver Center
Fri 07:49:54 PM 39.1600 -104.4617 326° Northwest 242 278 10,800 -581 Descending Denver Center
Fri 07:50:56 PM 39.2192 -104.5125 326° Northwest 239 275 9,800 -871 Descending Denver Center
Fri 07:51:58 PM 39.2619 -104.5686 315° West 225 259 9,000 -387 Descending Denver Center
Fri 07:53:00 PM 39.2964 -104.6381 303° West 229 264 9,000  Level Denver Center
Fri 07:54:02 PM 39.3319 -104.7069 304° West 219 252 9,000  Level Denver Center
Fri 07:55:04 PM 39.3678 -104.7717 306° West 220 253 9,000  Level Denver Center
Fri 07:56:06 PM 39.4278 -104.8103 334° Northwest 224 258 9,000  Level Denver Center
Fri 07:57:08 PM 39.4850 -104.8469 334° Northwest 228 262 9,000  Level Denver Center
Fri 07:58:10 PM 39.5422 -104.8825 334° Northwest 229 264 9,000  Level Denver Center
Fri 07:59:12 PM 39.6067 -104.9161 338° Northwest 233 268 9,000 -145 Level Denver Center
Fri 08:00:14 PM 39.6664 -104.9419 342° North 229 264 8,700 -484 Descending Denver Center
Fri 08:01:16 PM 39.7333 -104.9708 342° North 236 272 8,000 -629 Descending Denver Center
Fri 08:02:18 PM 39.7936 -104.9958 342° North 228 262 7,400 -532 Descending Denver Center
Fri 08:03:20 PM 39.8467 -105.0247 337° Northwest 207 238 6,900 -484 Descending Denver Center
Fri 08:04:22 PM 39.8781 -105.0589 320° Northwest 135 155 6,400 -484 Descending Denver Center
Fri 08:05:24 PM 39.8936 -105.0881 305° West 103 119 5,900 -387 Descending Denver Center
Fri 08:06:26 PM 39.9069 -105.1114 307° West 92 106 5,600 -290 Descending Denver Center
Fri 08:08:00 PM 39.9088 -105.1172 293° West  Level Estimated
Fri 08:15:00 PM 39.9088 -105.1172 217° Southwest  Level Estimated
Fri 08:16:00 PM 39.9088 -105.1172 217° Southwest  Level Estimated

Login

Don't have an account? Register now (free) for customized features, flight alerts, and more!